Time;durP1;ratioP1;P1;durP2;ratioP2;P2;SDS_P1;SDS_P2;PMS_P1;PMS_P2;Temp;Humidity;BMP_temperature;BMP_pressure;BME280_temperature;BME280_humidity;BME280_pressure;Samples;Min_cycle;Max_cycle;Signal;HPM_P1;HPM_P2
2023/03/19 00:02:03;;;;;;;7.93;3.33;;;13.30;99.90;;;;;;4905319;29;20134;-82
2023/03/19 00:04:31;;;;;;;7.10;3.45;;;13.10;99.90;;;;;;4921868;29;20079;-80
2023/03/19 00:06:57;;;;;;;6.43;2.35;;;13.00;99.90;;;;;;4905141;29;20035;-80
2023/03/19 00:09:23;;;;;;;5.07;2.30;;;12.90;99.90;;;;;;4921235;29;20405;-82
2023/03/19 00:11:48;;;;;;;4.18;2.45;;;12.90;99.90;;;;;;4922749;29;20036;-80
2023/03/19 00:14:14;;;;;;;5.28;2.92;;;12.80;99.90;;;;;;4903794;29;20032;-79
2023/03/19 00:16:40;;;;;;;7.55;2.70;;;12.60;99.90;;;;;;4922154;29;20031;-79
2023/03/19 00:19:07;;;;;;;3.45;2.70;;;12.50;99.90;;;;;;4902771;29;20038;-81
2023/03/19 00:21:33;;;;;;;2.78;2.53;;;12.40;99.90;;;;;;4920791;29;20031;-82
2023/03/19 00:24:01;;;;;;;4.90;3.33;;;12.40;99.90;;;;;;4900161;29;20020;-81
2023/03/19 00:26:27;;;;;;;8.07;3.78;;;12.40;99.90;;;;;;4905049;29;20063;-80
2023/03/19 00:28:54;;;;;;;3.90;3.40;;;12.40;99.90;;;;;;4920263;29;20042;-80
2023/03/19 00:31:21;;;;;;;5.53;3.15;;;12.30;99.90;;;;;;4922194;29;20114;-81
2023/03/19 00:33:46;;;;;;;3.75;3.33;;;12.30;99.90;;;;;;4920108;29;20028;-78
2023/03/19 00:36:12;;;;;;;5.38;3.15;;;12.30;99.90;;;;;;4920030;29;20111;-79
2023/03/19 00:38:41;;;;;;;6.05;3.53;;;12.30;99.90;;;;;;4919427;29;20051;-80
2023/03/19 00:41:06;;;;;;;5.22;3.30;;;12.30;99.90;;;;;;4903771;29;20563;-79
2023/03/19 00:43:32;;;;;;;6.22;3.45;;;12.30;99.90;;;;;;4919021;29;20106;-80
2023/03/19 00:46:00;;;;;;;6.38;2.90;;;12.20;99.90;;;;;;4905124;29;20384;-80
2023/03/19 00:48:26;;;;;;;10.00;3.47;;;12.10;99.90;;;;;;4920426;29;20664;-79
2023/03/19 00:50:54;;;;;;;3.88;3.45;;;12.10;99.90;;;;;;4904612;29;20553;-80
2023/03/19 00:53:20;;;;;;;5.38;3.53;;;12.20;99.90;;;;;;4907714;29;20533;-80
2023/03/19 00:55:46;;;;;;;7.75;3.30;;;12.20;99.90;;;;;;4907057;29;20047;-79
2023/03/19 00:58:12;;;;;;;6.65;3.08;;;12.20;99.90;;;;;;4924865;29;20070;-80
2023/03/19 01:00:40;;;;;;;3.95;3.00;;;12.20;99.90;;;;;;4931292;29;20409;-79
2023/03/19 01:03:09;;;;;;;2.90;2.70;;;12.10;99.90;;;;;;4925249;29;20114;-80
2023/03/19 01:05:35;;;;;;;7.22;3.55;;;12.10;99.90;;;;;;4927291;29;20042;-79
2023/03/19 01:08:01;;;;;;;5.82;3.30;;;12.10;99.90;;;;;;4936275;29;20016;-79
2023/03/19 01:10:29;;;;;;;6.28;3.47;;;12.10;99.90;;;;;;4930632;29;20075;-81
2023/03/19 01:12:55;;;;;;;5.13;3.28;;;12.10;99.90;;;;;;4948695;29;20037;-81
2023/03/19 01:15:21;;;;;;;5.50;3.65;;;12.10;99.90;;;;;;4948925;29;20067;-81
2023/03/19 01:17:46;;;;;;;8.35;3.55;;;12.20;99.90;;;;;;4936013;29;20057;-81
2023/03/19 01:20:13;;;;;;;4.57;3.33;;;12.20;99.90;;;;;;4906913;29;20039;-81
2023/03/19 01:22:41;;;;;;;6.90;3.85;;;12.20;99.90;;;;;;4908716;29;20023;-81
2023/03/19 01:25:08;;;;;;;4.55;3.60;;;12.20;99.90;;;;;;4908291;29;20487;-81
2023/03/19 01:27:37;;;;;;;5.90;4.07;;;12.20;99.90;;;;;;4909752;29;20519;-81
2023/03/19 01:30:06;;;;;;;8.73;5.70;;;12.20;99.90;;;;;;4908677;29;20028;-81
2023/03/19 01:32:32;;;;;;;14.20;8.00;;;12.20;99.90;;;;;;4903945;29;20024;-80
2023/03/19 01:34:58;;;;;;;10.57;6.30;;;12.20;99.90;;;;;;4926272;29;20493;-81
2023/03/19 01:37:23;;;;;;;18.27;7.97;;;12.20;99.90;;;;;;4906629;29;20118;-81
2023/03/19 01:39:49;;;;;;;21.83;8.18;;;12.20;99.90;;;;;;4905502;29;20024;-81
2023/03/19 01:42:15;;;;;;;25.77;9.80;;;12.20;99.90;;;;;;4907430;29;20036;-81
2023/03/19 01:44:41;;;;;;;17.90;7.82;;;12.20;99.90;;;;;;4924044;29;20480;-81
2023/03/19 01:47:17;;;;;;;14.73;7.38;;;12.20;99.90;;;;;;4901346;29;20035;-80
2023/03/19 01:49:45;;;;;;;12.73;7.28;;;12.20;99.90;;;;;;4921975;29;20725;-81
2023/03/19 01:52:12;;;;;;;10.15;5.28;;;12.10;99.90;;;;;;4906628;29;20026;-81
2023/03/19 01:54:42;;;;;;;6.45;5.22;;;12.10;99.90;;;;;;4903577;29;20672;-81
2023/03/19 01:57:12;;;;;;;9.02;4.35;;;12.10;99.90;;;;;;4923352;29;20531;-80
2023/03/19 01:59:45;;;;;;;9.05;5.28;;;12.10;99.90;;;;;;4920314;29;20036;-81
2023/03/19 02:02:20;;;;;;;9.20;4.80;;;12.10;99.90;;;;;;4921788;29;20625;-81
2023/03/19 02:04:51;;;;;;;5.00;4.28;;;12.10;99.90;;;;;;4902882;29;20026;-81
2023/03/19 02:07:20;;;;;;;5.63;4.55;;;12.10;99.90;;;;;;4924376;29;20035;-81
2023/03/19 02:09:46;;;;;;;6.25;3.70;;;12.10;99.90;;;;;;4905333;29;20134;-81
2023/03/19 02:12:12;;;;;;;4.93;3.90;;;12.10;99.90;;;;;;4896808;29;20118;-81
2023/03/19 02:14:38;;;;;;;7.20;3.88;;;12.10;99.90;;;;;;4903622;29;20023;-80
2023/03/19 02:17:07;;;;;;;8.20;4.40;;;12.10;99.90;;;;;;4904323;29;20062;-81
2023/03/19 02:19:51;;;;;;;5.82;4.00;;;12.10;99.90;;;;;;4904078;29;20039;-81
2023/03/19 02:22:20;;;;;;;6.00;4.05;;;12.10;99.90;;;;;;4923243;29;20237;-81
2023/03/19 02:25:19;;;;;;;8.98;4.00;;;12.10;99.90;;;;;;4919085;29;20086;-80
2023/03/19 02:27:47;;;;;;;5.30;4.10;;;12.10;99.90;;;;;;4921695;29;20032;-80
2023/03/19 02:30:22;;;;;;;6.97;4.13;;;12.10;99.90;;;;;;4922011;29;20126;-81
2023/03/19 02:32:50;;;;;;;7.32;4.00;;;12.00;99.90;;;;;;4920713;29;20031;-80
2023/03/19 02:35:16;;;;;;;4.95;3.53;;;12.00;99.90;;;;;;4921853;29;20050;-81
2023/03/19 02:40:28;;;;;;;5.30;4.18;;;12.10;99.90;;;;;;4982547;23;20058;-81
2023/03/19 02:42:53;;;;;;;13.77;4.38;;;12.10;99.90;;;;;;4929070;28;20026;-81
2023/03/19 02:45:20;;;;;;;5.03;3.70;;;12.10;99.90;;;;;;4927943;28;20384;-81
2023/03/19 02:47:45;;;;;;;11.57;4.35;;;12.10;99.90;;;;;;4926532;28;20167;-80
2023/03/19 02:50:11;;;;;;;5.15;3.63;;;12.20;99.90;;;;;;4945984;28;20022;-80
2023/03/19 02:52:37;;;;;;;8.27;4.50;;;12.20;99.90;;;;;;4944592;28;20105;-81
2023/03/19 02:55:03;;;;;;;6.30;3.85;;;12.20;99.90;;;;;;4923332;28;20070;-81
2023/03/19 02:57:29;;;;;;;9.73;4.00;;;12.20;99.90;;;;;;4927521;28;20023;-81
2023/03/19 02:59:55;;;;;;;6.15;4.10;;;12.20;99.90;;;;;;4945194;28;20608;-81
2023/03/19 03:02:20;;;;;;;8.25;3.90;;;12.30;99.90;;;;;;4942045;28;20542;-81
2023/03/19 03:04:49;;;;;;;6.28;3.97;;;12.30;99.90;;;;;;4926436;28;20028;-80
2023/03/19 03:07:16;;;;;;;7.57;4.25;;;12.30;99.90;;;;;;4942127;28;20043;-79
2023/03/19 03:09:42;;;;;;;7.05;4.15;;;12.40;99.90;;;;;;4943800;28;20023;-81
2023/03/19 03:12:08;;;;;;;10.15;4.13;;;12.40;99.90;;;;;;4928700;28;20016;-81
2023/03/19 03:14:34;;;;;;;13.63;4.35;;;12.40;99.90;;;;;;4926900;28;20050;-81
2023/03/19 03:17:00;;;;;;;9.95;3.75;;;12.40;99.90;;;;;;4943256;28;20718;-80
2023/03/19 03:19:26;;;;;;;4.50;3.47;;;12.40;99.90;;;;;;4942983;28;20031;-81
2023/03/19 03:21:52;;;;;;;6.20;4.25;;;12.40;99.90;;;;;;4926621;28;20026;-79
2023/03/19 03:24:20;;;;;;;7.47;4.03;;;12.40;99.90;;;;;;4926523;28;20286;-81
2023/03/19 03:26:46;;;;;;;5.95;3.65;;;12.40;99.90;;;;;;4926974;28;20027;-81
2023/03/19 03:29:12;;;;;;;6.88;3.45;;;12.30;99.90;;;;;;4943729;28;20106;-81
2023/03/19 03:31:37;;;;;;;7.57;3.50;;;12.30;99.90;;;;;;4925007;28;20027;-81
2023/03/19 03:34:06;;;;;;;7.55;2.97;;;12.40;99.90;;;;;;4942244;28;20030;-79
2023/03/19 03:36:31;;;;;;;7.05;2.80;;;12.40;99.90;;;;;;4927076;28;20027;-80
2023/03/19 03:38:57;;;;;;;6.35;2.72;;;12.30;99.90;;;;;;4950783;28;20035;-80
2023/03/19 03:41:23;;;;;;;8.70;2.47;;;12.40;99.90;;;;;;4929144;28;20027;-80
2023/03/19 03:43:48;;;;;;;2.85;2.45;;;12.40;99.90;;;;;;4927527;28;20023;-80
2023/03/19 03:46:14;;;;;;;4.63;2.80;;;12.40;99.90;;;;;;4942497;28;20023;-81
2023/03/19 03:48:42;;;;;;;5.13;3.03;;;12.40;99.90;;;;;;4926045;28;20584;-80
2023/03/19 03:51:07;;;;;;;3.40;2.15;;;12.40;99.90;;;;;;4927022;28;20022;-80
2023/03/19 03:53:33;;;;;;;7.45;2.75;;;12.40;99.90;;;;;;4926241;28;20124;-79
2023/03/19 03:55:59;;;;;;;5.88;2.75;;;12.40;99.90;;;;;;4942787;28;20150;-80
2023/03/19 03:58:24;;;;;;;3.00;2.33;;;12.40;99.90;;;;;;4941009;28;20031;-80
2023/03/19 04:00:51;;;;;;;4.47;3.08;;;12.40;99.90;;;;;;4925991;28;20027;-80
2023/03/19 04:03:18;;;;;;;5.68;2.90;;;12.40;99.90;;;;;;4942245;28;20119;-82
2023/03/19 04:05:44;;;;;;;7.53;3.28;;;12.40;99.90;;;;;;4943588;28;20483;-80
2023/03/19 04:08:10;;;;;;;7.55;3.30;;;12.40;99.90;;;;;;4926304;28;20632;-80
2023/03/19 04:10:39;;;;;;;6.25;3.25;;;12.50;99.90;;;;;;4944222;28;20027;-81
2023/03/19 04:13:08;;;;;;;7.88;2.88;;;12.50;99.90;;;;;;4927406;28;20423;-80
2023/03/19 04:15:37;;;;;;;8.05;3.42;;;12.50;99.90;;;;;;4943646;28;20091;-81
2023/03/19 04:18:03;;;;;;;3.35;2.83;;;12.50;99.90;;;;;;4949380;28;20035;-82
2023/03/19 04:20:29;;;;;;;5.25;2.92;;;12.50;99.90;;;;;;4943586;28;20046;-81
2023/03/19 04:22:55;;;;;;;5.57;2.78;;;12.50;99.90;;;;;;4945054;28;20025;-81
2023/03/19 04:25:21;;;;;;;5.95;3.15;;;12.60;99.90;;;;;;4927014;28;20026;-81
2023/03/19 04:27:46;;;;;;;5.57;2.55;;;12.50;99.90;;;;;;4930232;28;20299;-82
2023/03/19 04:30:13;;;;;;;6.13;2.20;;;12.50;99.90;;;;;;4948530;28;20351;-81
2023/03/19 04:32:39;;;;;;;4.95;2.22;;;12.60;99.90;;;;;;4931748;28;20018;-81
2023/03/19 04:35:05;;;;;;;8.85;2.38;;;12.60;99.90;;;;;;4947559;28;20031;-81
2023/03/19 04:37:30;;;;;;;3.00;2.47;;;12.60;99.90;;;;;;4936892;28;20047;-80
2023/03/19 04:39:56;;;;;;;4.22;2.80;;;12.60;99.90;;;;;;4945688;28;20209;-80
2023/03/19 04:42:24;;;;;;;9.25;2.63;;;12.50;99.90;;;;;;4931100;28;20034;-79
2023/03/19 04:44:51;;;;;;;3.28;2.45;;;12.50;99.90;;;;;;4929989;28;20525;-80
2023/03/19 04:47:17;;;;;;;5.82;2.40;;;12.50;99.90;;;;;;4929503;28;20023;-80
2023/03/19 04:49:42;;;;;;;3.85;2.65;;;12.50;99.90;;;;;;4932342;28;20208;-81
2023/03/19 04:52:08;;;;;;;6.22;2.63;;;12.50;99.90;;;;;;4926487;28;20042;-79
2023/03/19 04:54:33;;;;;;;3.78;2.63;;;12.60;99.90;;;;;;4946789;28;20038;-80
2023/03/19 04:56:59;;;;;;;4.53;2.78;;;12.50;99.90;;;;;;4949522;28;20502;-80
2023/03/19 04:59:26;;;;;;;3.30;2.83;;;12.50;99.90;;;;;;4948085;28;20031;-81
2023/03/19 05:01:52;;;;;;;4.63;3.03;;;12.50;99.90;;;;;;4950272;28;20034;-81
2023/03/19 05:04:17;;;;;;;7.68;2.90;;;12.60;99.90;;;;;;4946929;28;20023;-80
2023/03/19 05:06:43;;;;;;;4.03;3.17;;;12.60;99.90;;;;;;4930821;28;20031;-79
2023/03/19 05:09:09;;;;;;;7.07;2.67;;;12.60;99.90;;;;;;4928228;28;20454;-80
2023/03/19 05:11:35;;;;;;;5.97;2.95;;;12.60;99.90;;;;;;4931182;28;20029;-80
2023/03/19 05:14:00;;;;;;;7.75;3.15;;;12.60;99.90;;;;;;4949044;28;20447;-80
2023/03/19 05:16:28;;;;;;;4.00;2.88;;;12.60;99.90;;;;;;4927929;28;20066;-80
2023/03/19 05:18:54;;;;;;;8.23;3.33;;;12.60;99.90;;;;;;4949317;28;20019;-80
2023/03/19 05:21:20;;;;;;;5.93;3.20;;;12.70;99.90;;;;;;4938200;28;20030;-79
2023/03/19 05:23:45;;;;;;;8.27;3.65;;;12.60;99.90;;;;;;5087780;23;20455;-79
2023/03/19 05:26:11;;;;;;;7.57;3.67;;;12.50;99.90;;;;;;4947978;28;20094;-79
2023/03/19 05:28:37;;;;;;;8.07;3.88;;;12.30;99.90;;;;;;4949881;28;20030;-81
2023/03/19 05:31:03;;;;;;;6.90;3.60;;;12.20;99.90;;;;;;4944193;28;20026;-79
2023/03/19 05:33:29;;;;;;;9.20;3.83;;;12.20;99.90;;;;;;4936693;28;20388;-80
2023/03/19 05:35:55;;;;;;;8.70;4.00;;;12.00;99.90;;;;;;4929346;28;20491;-80
2023/03/19 05:38:21;;;;;;;8.80;4.30;;;11.90;99.90;;;;;;4934024;28;20031;-82
2023/03/19 05:40:46;;;;;;;7.57;4.00;;;11.80;99.90;;;;;;4945058;28;20715;-80
2023/03/19 05:43:12;;;;;;;6.55;4.38;;;11.70;99.90;;;;;;4947707;28;20031;-80
2023/03/19 05:45:39;;;;;;;6.72;4.57;;;11.70;99.90;;;;;;4928098;28;21826;-80
2023/03/19 05:48:05;;;;;;;5.97;4.55;;;11.60;99.90;;;;;;4928622;28;20027;-80
2023/03/19 05:50:32;;;;;;;12.20;4.57;;;11.60;99.90;;;;;;4946640;28;20090;-80
2023/03/19 05:52:58;;;;;;;15.68;5.00;;;11.50;99.90;;;;;;4931874;28;20034;-80
2023/03/19 05:55:24;;;;;;;6.18;5.05;;;11.50;99.90;;;;;;4942731;28;20372;-81
2023/03/19 05:57:50;;;;;;;9.45;5.40;;;11.50;99.90;;;;;;4946817;28;20691;-81
2023/03/19 06:00:16;;;;;;;16.00;5.78;;;11.50;99.90;;;;;;4946830;28;20043;-82
2023/03/19 06:02:42;;;;;;;15.43;6.47;;;11.50;99.90;;;;;;4947835;28;20019;-81
2023/03/19 06:05:10;;;;;;;7.13;6.00;;;11.40;99.90;;;;;;4929099;28;20035;-82
2023/03/19 06:07:36;;;;;;;11.68;6.35;;;11.50;99.90;;;;;;4929805;28;20031;-81
2023/03/19 06:10:03;;;;;;;11.75;6.93;;;11.40;99.90;;;;;;4931702;28;20029;-82
2023/03/19 06:12:31;;;;;;;12.00;6.43;;;11.50;99.90;;;;;;4930870;28;20023;-81
2023/03/19 06:14:57;;;;;;;9.85;6.20;;;11.50;99.90;;;;;;4944675;28;20034;-81
2023/03/19 06:17:22;;;;;;;10.85;6.43;;;11.60;99.90;;;;;;4946752;28;20572;-81
2023/03/19 06:19:48;;;;;;;9.32;6.72;;;11.70;99.90;;;;;;4951669;28;20544;-81
2023/03/19 06:22:14;;;;;;;15.48;6.22;;;11.70;99.90;;;;;;4945457;28;20063;-81
2023/03/19 06:24:42;;;;;;;9.32;6.97;;;11.60;99.90;;;;;;4946689;28;20030;-81
2023/03/19 06:27:08;;;;;;;14.57;7.13;;;11.60;99.90;;;;;;4943851;28;20038;-80
2023/03/19 06:29:34;;;;;;;11.20;7.00;;;11.70;99.90;;;;;;4937986;28;20023;-79
2023/03/19 06:32:00;;;;;;;15.60;7.40;;;11.60;99.90;;;;;;4929584;28;20031;-81
2023/03/19 06:34:26;;;;;;;9.43;6.97;;;11.70;99.90;;;;;;4928414;28;20123;-81
2023/03/19 06:36:52;;;;;;;13.40;7.70;;;11.70;99.90;;;;;;4944200;28;20026;-82
2023/03/19 06:39:18;;;;;;;13.57;7.75;;;11.70;99.90;;;;;;4948060;28;20068;-81
2023/03/19 06:41:44;;;;;;;11.45;7.80;;;11.80;99.90;;;;;;4932494;28;20031;-82
2023/03/19 06:44:10;;;;;;;12.45;7.53;;;11.80;99.90;;;;;;4947045;28;20038;-80
2023/03/19 06:46:36;;;;;;;11.35;7.60;;;11.80;99.90;;;;;;4954536;28;20027;-81
2023/03/19 06:49:01;;;;;;;11.55;7.50;;;11.80;99.90;;;;;;4952714;28;20046;-81
2023/03/19 06:51:27;;;;;;;10.32;7.35;;;11.80;99.90;;;;;;4948159;28;20034;-80
2023/03/19 06:53:53;;;;;;;12.38;7.22;;;11.90;99.90;;;;;;4946233;28;20059;-80
2023/03/19 06:56:19;;;;;;;9.65;7.10;;;12.00;99.90;;;;;;4943348;28;20019;-81
2023/03/19 06:58:45;;;;;;;12.68;7.88;;;12.00;99.90;;;;;;4928761;28;20019;-81
2023/03/19 07:01:11;;;;;;;11.52;7.57;;;12.10;99.90;;;;;;4947495;28;20042;-81
2023/03/19 07:03:36;;;;;;;10.07;7.18;;;12.00;99.90;;;;;;4931311;28;20050;-81
2023/03/19 07:06:02;;;;;;;9.25;7.80;;;12.10;99.90;;;;;;4928296;28;20306;-81
2023/03/19 07:08:30;;;;;;;12.77;8.05;;;12.10;99.90;;;;;;4929383;28;20027;-82
2023/03/19 07:10:56;;;;;;;9.45;7.97;;;12.10;99.90;;;;;;4941349;28;20710;-80
2023/03/19 07:13:22;;;;;;;12.18;7.47;;;12.10;99.90;;;;;;4947573;28;20083;-81
2023/03/19 07:15:48;;;;;;;9.38;7.07;;;12.20;99.90;;;;;;4952721;28;20023;-83
2023/03/19 07:18:14;;;;;;;12.82;8.10;;;12.10;99.90;;;;;;4953375;28;20058;-81
2023/03/19 07:20:39;;;;;;;12.88;7.90;;;12.20;99.90;;;;;;4949745;28;20476;-81
2023/03/19 07:23:05;;;;;;;11.27;8.07;;;12.30;99.90;;;;;;4962085;28;20141;-80
2023/03/19 07:25:31;;;;;;;9.95;7.38;;;12.30;99.90;;;;;;4964746;28;20100;-81
2023/03/19 07:27:59;;;;;;;12.50;7.88;;;12.40;99.90;;;;;;4967785;28;20034;-81
2023/03/19 07:30:25;;;;;;;9.55;6.85;;;12.40;99.90;;;;;;4969234;28;20022;-81
2023/03/19 07:32:50;;;;;;;310.73;111.70;;;12.40;99.90;;;;;;4959678;28;20400;-83
2023/03/19 07:35:16;;;;;;;16.48;10.05;;;12.50;99.90;;;;;;4947868;28;20023;-81
2023/03/19 07:37:44;;;;;;;10.82;7.28;;;12.50;99.90;;;;;;4932424;28;20075;-81
2023/03/19 07:40:10;;;;;;;12.13;7.57;;;12.50;99.90;;;;;;4944612;28;20046;-80
2023/03/19 07:42:37;;;;;;;8.35;7.05;;;12.60;99.90;;;;;;4944540;28;20050;-81
2023/03/19 07:45:03;;;;;;;11.55;7.28;;;12.70;99.90;;;;;;4943412;28;20030;-80
2023/03/19 07:47:29;;;;;;;10.65;6.72;;;12.70;99.90;;;;;;4942081;28;20031;-80
2023/03/19 07:49:58;;;;;;;14.35;7.95;;;12.70;99.90;;;;;;4942627;28;20030;-81
2023/03/19 07:52:24;;;;;;;11.90;7.85;;;12.60;99.90;;;;;;4925959;28;20046;-82
2023/03/19 07:54:51;;;;;;;12.57;7.75;;;12.50;99.90;;;;;;4928996;28;20475;-82
2023/03/19 07:57:18;;;;;;;11.73;7.63;;;12.60;99.90;;;;;;4928432;28;20023;-81
2023/03/19 07:59:44;;;;;;;11.80;7.07;;;12.70;99.90;;;;;;4942974;28;20044;-81
2023/03/19 08:02:11;;;;;;;11.25;7.75;;;12.90;99.90;;;;;;4944027;28;20256;-80
2023/03/19 08:04:37;;;;;;;10.88;7.75;;;13.10;99.90;;;;;;4914610;28;20042;-81
2023/03/19 08:07:03;;;;;;;13.82;8.60;;;13.20;99.90;;;;;;4948538;28;20696;-81
2023/03/19 08:09:28;;;;;;;10.35;8.05;;;13.40;99.90;;;;;;4928335;28;20462;-79
2023/03/19 08:11:54;;;;;;;18.70;8.35;;;13.50;99.90;;;;;;4917815;28;20084;-80
2023/03/19 08:14:21;;;;;;;10.23;8.15;;;13.70;99.90;;;;;;4925048;28;20031;-81
2023/03/19 08:16:49;;;;;;;12.02;8.55;;;13.70;99.90;;;;;;4946691;28;20027;-80
2023/03/19 08:19:15;;;;;;;13.85;8.80;;;13.70;99.90;;;;;;4942828;28;20020;-83
2023/03/19 08:21:41;;;;;;;9.80;8.23;;;13.60;99.90;;;;;;4944069;28;20023;-81
2023/03/19 08:24:07;;;;;;;14.18;8.75;;;13.70;99.90;;;;;;4943096;28;20066;-81
2023/03/19 08:26:33;;;;;;;12.55;8.30;;;13.70;99.90;;;;;;4942361;28;20093;-82
2023/03/19 08:28:59;;;;;;;10.40;8.00;;;13.70;99.90;;;;;;4943311;28;20131;-81
2023/03/19 08:31:24;;;;;;;13.15;8.40;;;13.80;99.90;;;;;;4944863;28;20019;-81
2023/03/19 08:33:54;;;;;;;12.73;8.85;;;13.90;99.90;;;;;;4943936;28;21131;-81
2023/03/19 08:36:20;;;;;;;15.48;8.85;;;14.00;99.90;;;;;;4942769;28;20115;-81
2023/03/19 08:38:53;;;;;;;11.02;7.95;;;14.00;99.90;;;;;;4943549;28;20109;-81
2023/03/19 08:41:19;;;;;;;14.82;8.18;;;14.20;99.90;;;;;;4942992;28;20670;-80
2023/03/19 08:43:45;;;;;;;10.73;7.85;;;14.30;99.90;;;;;;4942637;28;20435;-80
2023/03/19 08:46:11;;;;;;;13.77;9.02;;;14.30;99.90;;;;;;4944124;28;20747;-79
2023/03/19 08:48:37;;;;;;;12.20;8.43;;;14.40;99.90;;;;;;4941361;28;20024;-78
2023/03/19 08:51:03;;;;;;;15.27;9.05;;;14.50;99.90;;;;;;4950278;28;20050;-79
2023/03/19 08:53:29;;;;;;;12.52;9.00;;;14.80;99.90;;;;;;4944649;28;20026;-79
2023/03/19 08:55:58;;;;;;;12.23;9.32;;;15.00;99.90;;;;;;4942820;28;20031;-79
2023/03/19 08:58:25;;;;;;;11.70;8.43;;;15.10;99.90;;;;;;4943264;28;20023;-79
2023/03/19 09:00:52;;;;;;;12.98;9.15;;;15.00;99.90;;;;;;4944065;28;20047;-80
2023/03/19 09:03:18;;;;;;;11.80;8.75;;;15.00;99.90;;;;;;4943645;28;20035;-80
2023/03/19 09:05:44;;;;;;;11.23;8.98;;;15.10;99.90;;;;;;4947305;28;20016;-80
2023/03/19 09:08:12;;;;;;;10.63;8.73;;;15.20;99.90;;;;;;4936600;28;20082;-81
2023/03/19 09:10:38;;;;;;;17.38;8.82;;;14.90;99.90;;;;;;4948971;28;20128;-80
2023/03/19 09:13:04;;;;;;;12.30;8.98;;;14.70;99.90;;;;;;4945659;28;20699;-81
2023/03/19 09:15:30;;;;;;;16.95;8.93;;;14.50;99.90;;;;;;4929824;28;20398;-81
2023/03/19 09:17:56;;;;;;;13.05;9.15;;;14.40;99.90;;;;;;4926283;28;20047;-80
2023/03/19 09:20:22;;;;;;;498.83;173.23;;;14.40;99.90;;;;;;4945485;28;20133;-81
2023/03/19 09:22:47;;;;;;;11.30;9.50;;;14.60;99.90;;;;;;4948889;28;20023;-80
2023/03/19 09:25:13;;;;;;;11.20;8.95;;;14.80;99.90;;;;;;4949045;28;20207;-80
2023/03/19 09:27:39;;;;;;;11.35;8.88;;;14.80;99.90;;;;;;4941941;28;20441;-80
2023/03/19 09:30:08;;;;;;;10.80;8.73;;;14.80;99.90;;;;;;4911999;29;20058;-81
2023/03/19 09:32:34;;;;;;;11.38;8.35;;;15.00;99.90;;;;;;4894545;29;20066;-80
2023/03/19 09:35:00;;;;;;;10.40;7.88;;;15.10;99.90;;;;;;4911478;29;20040;-80
2023/03/19 09:37:26;;;;;;;9.55;8.23;;;15.30;99.90;;;;;;4889088;29;20100;-80
2023/03/19 09:39:52;;;;;;;12.52;8.35;;;15.40;99.90;;;;;;4895193;29;20078;-81
2023/03/19 09:42:35;;;;;;;11.55;7.93;;;15.50;99.90;;;;;;4887336;29;21110;-80
2023/03/19 09:45:01;;;;;;;10.00;7.57;;;15.50;99.90;;;;;;4905126;29;20043;-80
2023/03/19 09:47:33;;;;;;;10.48;8.20;;;15.30;99.90;;;;;;4908008;29;20412;-80
2023/03/19 09:50:02;;;;;;;9.73;7.15;;;15.10;99.90;;;;;;4895242;29;20052;-77
2023/03/19 09:53:04;;;;;;;184.80;68.75;;;14.80;99.90;;;;;;4887094;29;20036;-80
2023/03/19 09:55:51;;;;;;;34.13;15.02;;;14.70;99.90;;;;;;4902537;29;20124;-80
2023/03/19 09:58:22;;;;;;;15.45;8.05;;;14.50;99.90;;;;;;4885985;29;20065;-79
2023/03/19 10:00:52;;;;;;;10.10;7.82;;;14.40;99.90;;;;;;4907141;28;20034;-79
2023/03/19 10:03:47;;;;;;;10.85;7.93;;;14.60;99.90;;;;;;4951674;28;20041;-79
2023/03/19 10:06:16;;;;;;;9.23;8.32;;;14.70;99.90;;;;;;4937140;28;20081;-80
2023/03/19 10:08:52;;;;;;;11.02;7.78;;;14.80;99.90;;;;;;4952411;28;20016;-81
2023/03/19 10:11:48;;;;;;;15.60;8.55;;;14.90;99.90;;;;;;4929751;28;20487;-79
2023/03/19 10:14:35;;;;;;;11.32;7.65;;;15.00;99.90;;;;;;4939163;28;20148;-81
2023/03/19 10:17:03;;;;;;;12.88;7.63;;;15.10;99.90;;;;;;4931418;28;20027;-81
2023/03/19 10:19:56;;;;;;;11.88;7.70;;;15.10;99.90;;;;;;4951479;28;20053;-78
2023/03/19 10:22:29;;;;;;;16.80;10.73;;;15.00;99.90;;;;;;4951829;28;20034;-80
2023/03/19 10:24:55;;;;;;;;;;;15.10;99.90;;;;;;4945001;28;20395;-79
2023/03/19 10:27:29;;;;;;;9.75;6.70;;;15.20;99.90;;;;;;4950890;28;19910;-80
2023/03/19 10:29:55;;;;;;;10.32;6.70;;;15.30;99.90;;;;;;4948921;28;20411;-79
2023/03/19 10:32:40;;;;;;;11.35;6.85;;;15.50;99.90;;;;;;4949674;28;20035;-80
2023/03/19 10:35:23;;;;;;;26.42;11.98;;;15.70;99.90;;;;;;4947976;28;20469;-78
2023/03/19 10:37:49;;;;;;;7.32;6.22;;;16.30;99.90;;;;;;4930630;28;20130;-79
2023/03/19 10:40:33;;;;;;;12.00;6.30;;;17.00;99.90;;;;;;4928788;28;20157;-79
2023/03/19 10:43:23;;;;;;;9.98;6.53;;;17.10;99.90;;;;;;4951302;28;20050;-79
2023/03/19 10:45:49;;;;;;;8.18;6.00;;;17.40;99.90;;;;;;4920316;28;20042;-80
2023/03/19 10:48:17;;;;;;;6.70;5.47;;;17.60;99.90;;;;;;4925290;28;20192;-79
2023/03/19 10:50:49;;;;;;;6.32;4.72;;;17.80;99.90;;;;;;4947096;28;20034;-79
2023/03/19 10:53:15;;;;;;;8.48;5.43;;;18.20;99.90;;;;;;4932009;28;20034;-79
2023/03/19 10:56:14;;;;;;;6.28;4.82;;;18.10;99.90;;;;;;4953046;28;20027;-79
2023/03/19 10:58:40;;;;;;;4.35;3.92;;;18.30;99.90;;;;;;4914230;28;20035;-79
2023/03/19 11:04:28;;;;;;;9.55;3.92;;;18.60;99.90;;;;;;4940745;28;20218;-79
2023/03/19 11:07:18;;;;;;;5.45;3.53;;;18.60;99.90;;;;;;4928340;28;20117;-79
2023/03/19 11:09:50;;;;;;;3.35;2.72;;;18.80;99.90;;;;;;4952325;28;20498;-83
2023/03/19 11:12:17;;;;;;;4.35;3.30;;;18.50;99.90;;;;;;4925531;28;20049;-83
2023/03/19 11:14:47;;;;;;;2.85;2.42;;;18.40;99.90;;;;;;4953158;28;20778;-81
2023/03/19 11:17:21;;;;;;;5.53;2.80;;;18.20;99.90;;;;;;4932188;28;20022;-82
2023/03/19 11:19:56;;;;;;;3.40;3.10;;;18.50;99.90;;;;;;4955580;28;20027;-82
2023/03/19 11:22:26;;;;;;;2.70;2.50;;;19.00;99.90;;;;;;4957880;28;20034;-83
2023/03/19 11:24:59;;;;;;;3.60;2.80;;;19.30;99.90;;;;;;4957656;28;20023;-82
2023/03/19 11:27:33;;;;;;;4.70;2.65;;;19.50;99.90;;;;;;4957851;28;20325;-81
2023/03/19 11:30:00;;;;;;;2.17;1.98;;;19.60;99.90;;;;;;4962559;28;20030;-82
2023/03/19 11:32:34;;;;;;;2.88;2.50;;;20.20;99.90;;;;;;4933903;28;20053;-79
2023/03/19 11:35:03;;;;;;;2.28;2.08;;;20.30;97.50;;;;;;4957496;28;20026;-79
2023/03/19 11:38:00;;;;;;;3.50;2.40;;;20.20;97.40;;;;;;4942624;28;20029;-80
2023/03/19 11:40:49;;;;;;;3.47;2.63;;;20.10;97.80;;;;;;4954384;28;20038;-80
2023/03/19 11:43:42;;;;;;;2.72;2.50;;;20.50;97.70;;;;;;4932101;28;20101;-80
2023/03/19 11:46:19;;;;;;;5.97;2.88;;;20.60;95.50;;;;;;4956500;28;20398;-80
2023/03/19 11:48:51;;;;;;;5.65;2.97;;;21.10;96.90;;;;;;4955649;28;20019;-84
2023/03/19 11:51:45;;;;;;;4.20;3.53;;;21.80;95.80;;;;;;4936708;28;20631;-82
2023/03/19 11:54:26;;;;;;;3.22;2.67;;;21.80;92.40;;;;;;4932985;28;20034;-82
2023/03/19 11:57:25;;;;;;;4.03;2.78;;;22.10;92.90;;;;;;4939015;28;20064;-83
2023/03/19 11:59:58;;;;;;;4.22;3.13;;;22.20;91.90;;;;;;4911465;28;20086;-82
2023/03/19 12:02:55;;;;;;;6.03;2.75;;;22.80;92.20;;;;;;4932591;28;20467;-83
2023/03/19 12:05:38;;;;;;;3.95;2.47;;;22.90;88.90;;;;;;4930015;28;20038;-82
2023/03/19 12:08:16;;;;;;;6.03;2.58;;;23.20;87.10;;;;;;4952576;28;20082;-84
2023/03/19 12:10:45;;;;;;;4.57;2.42;;;23.30;85.10;;;;;;4955746;28;20031;-85
2023/03/19 12:13:22;;;;;;;2.92;2.63;;;23.00;85.40;;;;;;4955114;28;20023;-87
2023/03/19 12:16:03;;;;;;;6.00;2.30;;;23.20;84.30;;;;;;4935507;28;20030;-85
2023/03/19 12:19:00;;;;;;;2.88;2.13;;;23.30;82.10;;;;;;4936026;28;20023;-80
2023/03/19 12:22:03;;;;;;;3.15;2.40;;;23.30;80.20;;;;;;4937891;28;20101;-79
2023/03/19 12:24:53;;;;;;;4.40;2.05;;;23.60;80.40;;;;;;4953868;28;20618;-79
2023/03/19 12:27:31;;;;;;;6.20;2.20;;;23.60;76.80;;;;;;4960650;28;20336;-79
2023/03/19 12:30:01;;;;;;;4.55;2.65;;;23.40;75.00;;;;;;4961893;28;20054;-81
2023/03/19 12:32:59;;;;;;;4.82;2.60;;;22.90;74.30;;;;;;4935167;28;20133;-81
2023/03/19 12:35:37;;;;;;;4.22;2.58;;;22.60;79.00;;;;;;4954861;28;20022;-80
2023/03/19 12:38:14;;;;;;;6.57;2.40;;;22.80;76.30;;;;;;4952404;28;20035;-80
2023/03/19 12:40:49;;;;;;;6.65;2.42;;;22.50;75.90;;;;;;4952586;28;20043;-80
2023/03/19 12:43:27;;;;;;;4.13;2.50;;;22.20;77.70;;;;;;4929640;28;20104;-79
2023/03/19 12:46:05;;;;;;;5.07;2.35;;;21.40;79.80;;;;;;4953009;28;20035;-82
2023/03/19 12:48:40;;;;;;;6.68;2.67;;;21.40;81.90;;;;;;4936298;28;20118;-81
2023/03/19 12:51:10;;;;;;;3.65;2.38;;;21.80;83.70;;;;;;4956854;28;20027;-81
2023/03/19 12:53:51;;;;;;;4.45;2.75;;;21.70;78.20;;;;;;4934489;28;20520;-81
2023/03/19 12:56:20;;;;;;;3.40;2.22;;;21.10;79.10;;;;;;4938478;28;20026;-81
2023/03/19 12:58:58;;;;;;;4.53;2.40;;;21.00;81.50;;;;;;4956685;28;20049;-79
2023/03/19 13:01:36;;;;;;;3.47;2.38;;;21.40;84.60;;;;;;4921324;28;20418;-79